sensor_id;sensor_type;location;lat;lon;timestamp;P1;P2;P0
57289;PMS5003;43523;53.022;-1.178;2023-05-20T00:00:19;17;14;
57289;PMS5003;43523;53.022;-1.178;2023-05-20T00:01:22;20;17;
57289;PMS5003;43523;53.022;-1.178;2023-05-20T00:02:24;14;14;
57289;PMS5003;43523;53.022;-1.178;2023-05-20T00:03:27;18;17;
57289;PMS5003;43523;53.022;-1.178;2023-05-20T00:04:29;14;13;
57289;PMS5003;43523;53.022;-1.178;2023-05-20T00:05:31;18;14;
57289;PMS5003;43523;53.022;-1.178;2023-05-20T00:06:33;19;15;
57289;PMS5003;43523;53.022;-1.178;2023-05-20T00:07:36;14;14;
57289;PMS5003;43523;53.022;-1.178;2023-05-20T00:08:38;15;15;
57289;PMS5003;43523;53.022;-1.178;2023-05-20T00:09:40;19;17;
57289;PMS5003;43523;53.022;-1.178;2023-05-20T00:10:42;18;16;
57289;PMS5003;43523;53.022;-1.178;2023-05-20T00:11:44;21;19;
57289;PMS5003;43523;53.022;-1.178;2023-05-20T00:12:48;23;16;
57289;PMS5003;43523;53.022;-1.178;2023-05-20T00:13:50;21;17;
57289;PMS5003;43523;53.022;-1.178;2023-05-20T00:14:52;15;13;
57289;PMS5003;43523;53.022;-1.178;2023-05-20T00:15:55;20;17;
57289;PMS5003;43523;53.022;-1.178;2023-05-20T00:16:56;21;14;
57289;PMS5003;43523;53.022;-1.178;2023-05-20T00:17:59;20;19;
57289;PMS5003;43523;53.022;-1.178;2023-05-20T00:19:03;17;16;
57289;PMS5003;43523;53.022;-1.178;2023-05-20T00:20:05;21;18;
57289;PMS5003;43523;53.022;-1.178;2023-05-20T00:21:08;18;15;
57289;PMS5003;43523;53.022;-1.178;2023-05-20T00:22:10;16;15;
57289;PMS5003;43523;53.022;-1.178;2023-05-20T00:23:12;21;18;
57289;PMS5003;43523;53.022;-1.178;2023-05-20T00:24:15;25;21;
57289;PMS5003;43523;53.022;-1.178;2023-05-20T00:25:17;22;18;
57289;PMS5003;43523;53.022;-1.178;2023-05-20T00:26:20;23;17;
57289;PMS5003;43523;53.022;-1.178;2023-05-20T00:27:22;21;16;
57289;PMS5003;43523;53.022;-1.178;2023-05-20T00:28:24;21;18;
57289;PMS5003;43523;53.022;-1.178;2023-05-20T00:29:27;18;17;
57289;PMS5003;43523;53.022;-1.178;2023-05-20T00:30:29;13;13;
57289;PMS5003;43523;53.022;-1.178;2023-05-20T00:31:31;21;20;
57289;PMS5003;43523;53.022;-1.178;2023-05-20T00:32:34;19;17;
57289;PMS5003;43523;53.022;-1.178;2023-05-20T00:33:36;16;14;
57289;PMS5003;43523;53.022;-1.178;2023-05-20T00:34:39;20;18;
57289;PMS5003;43523;53.022;-1.178;2023-05-20T00:35:43;20;18;
57289;PMS5003;43523;53.022;-1.178;2023-05-20T00:36:46;16;16;
57289;PMS5003;43523;53.022;-1.178;2023-05-20T00:37:48;21;18;
57289;PMS5003;43523;53.022;-1.178;2023-05-20T00:38:51;18;14;
57289;PMS5003;43523;53.022;-1.178;2023-05-20T00:39:54;20;19;
57289;PMS5003;43523;53.022;-1.178;2023-05-20T00:40:56;19;14;
57289;PMS5003;43523;53.022;-1.178;2023-05-20T00:41:57;27;17;
57289;PMS5003;43523;53.022;-1.178;2023-05-20T00:43:00;16;16;
57289;PMS5003;43523;53.022;-1.178;2023-05-20T00:44:02;17;14;
57289;PMS5003;43523;53.022;-1.178;2023-05-20T00:45:05;21;14;
57289;PMS5003;43523;53.022;-1.178;2023-05-20T00:46:08;14;13;
57289;PMS5003;43523;53.022;-1.178;2023-05-20T00:47:11;24;19;
57289;PMS5003;43523;53.022;-1.178;2023-05-20T00:48:13;15;15;
57289;PMS5003;43523;53.022;-1.178;2023-05-20T00:49:16;20;19;
57289;PMS5003;43523;53.022;-1.178;2023-05-20T00:50:18;17;13;
57289;PMS5003;43523;53.022;-1.178;2023-05-20T00:51:20;17;17;
57289;PMS5003;43523;53.022;-1.178;2023-05-20T00:52:22;25;18;
57289;PMS5003;43523;53.022;-1.178;2023-05-20T00:53:25;16;16;
57289;PMS5003;43523;53.022;-1.178;2023-05-20T00:54:27;16;13;
57289;PMS5003;43523;53.022;-1.178;2023-05-20T00:55:29;19;16;
57289;PMS5003;43523;53.022;-1.178;2023-05-20T00:56:32;23;18;
57289;PMS5003;43523;53.022;-1.178;2023-05-20T00:57:35;17;17;
57289;PMS5003;43523;53.022;-1.178;2023-05-20T00:58:42;18;15;
57289;PMS5003;43523;53.022;-1.178;2023-05-20T00:59:45;21;18;
57289;PMS5003;43523;53.022;-1.178;2023-05-20T01:00:48;19;15;
57289;PMS5003;43523;53.022;-1.178;2023-05-20T01:01:51;22;17;
57289;PMS5003;43523;53.022;-1.178;2023-05-20T01:02:54;18;16;
57289;PMS5003;43523;53.022;-1.178;2023-05-20T01:03:56;21;18;
57289;PMS5003;43523;53.022;-1.178;2023-05-20T01:04:59;16;14;
57289;PMS5003;43523;53.022;-1.178;2023-05-20T01:06:02;16;15;
57289;PMS5003;43523;53.022;-1.178;2023-05-20T01:07:04;27;17;
57289;PMS5003;43523;53.022;-1.178;2023-05-20T01:08:07;20;14;
57289;PMS5003;43523;53.022;-1.178;2023-05-20T01:09:09;14;13;
57289;PMS5003;43523;53.022;-1.178;2023-05-20T01:10:12;14;13;
57289;PMS5003;43523;53.022;-1.178;2023-05-20T01:11:16;21;15;
57289;PMS5003;43523;53.022;-1.178;2023-05-20T01:12:28;19;17;
57289;PMS5003;43523;53.022;-1.178;2023-05-20T01:13:36;21;17;
57289;PMS5003;43523;53.022;-1.178;2023-05-20T01:14:47;23;16;
57289;PMS5003;43523;53.022;-1.178;2023-05-20T01:15:50;16;14;
57289;PMS5003;43523;53.022;-1.178;2023-05-20T01:16:56;17;14;
57289;PMS5003;43523;53.022;-1.178;2023-05-20T01:18:02;19;14;
57289;PMS5003;43523;53.022;-1.178;2023-05-20T01:19:11;22;20;
57289;PMS5003;43523;53.022;-1.178;2023-05-20T01:20:25;21;18;
57289;PMS5003;43523;53.022;-1.178;2023-05-20T01:21:30;19;18;
57289;PMS5003;43523;53.022;-1.178;2023-05-20T01:22:35;19;17;
57289;PMS5003;43523;53.022;-1.178;2023-05-20T01:23:39;22;20;
57289;PMS5003;43523;53.022;-1.178;2023-05-20T01:24:42;21;17;
57289;PMS5003;43523;53.022;-1.178;2023-05-20T01:25:46;23;17;
57289;PMS5003;43523;53.022;-1.178;2023-05-20T01:26:53;15;14;
57289;PMS5003;43523;53.022;-1.178;2023-05-20T01:27:56;14;14;
57289;PMS5003;43523;53.022;-1.178;2023-05-20T01:28:58;19;17;
57289;PMS5003;43523;53.022;-1.178;2023-05-20T01:30:00;19;17;
57289;PMS5003;43523;53.022;-1.178;2023-05-20T01:31:03;24;18;
57289;PMS5003;43523;53.022;-1.178;2023-05-20T01:32:08;24;19;
57289;PMS5003;43523;53.022;-1.178;2023-05-20T01:33:12;17;16;
57289;PMS5003;43523;53.022;-1.178;2023-05-20T01:34:17;22;20;
57289;PMS5003;43523;53.022;-1.178;2023-05-20T01:35:19;20;18;
57289;PMS5003;43523;53.022;-1.178;2023-05-20T01:36:23;20;18;
57289;PMS5003;43523;53.022;-1.178;2023-05-20T01:37:27;18;16;
57289;PMS5003;43523;53.022;-1.178;2023-05-20T01:38:30;25;23;
57289;PMS5003;43523;53.022;-1.178;2023-05-20T01:39:33;18;17;
57289;PMS5003;43523;53.022;-1.178;2023-05-20T01:40:39;15;14;
57289;PMS5003;43523;53.022;-1.178;2023-05-20T01:41:44;17;16;
57289;PMS5003;43523;53.022;-1.178;2023-05-20T01:42:48;16;16;
57289;PMS5003;43523;53.022;-1.178;2023-05-20T01:43:52;18;14;
57289;PMS5003;43523;53.022;-1.178;2023-05-20T01:44:57;19;18;
57289;PMS5003;43523;53.022;-1.178;2023-05-20T01:46:00;22;15;
57289;PMS5003;43523;53.022;-1.178;2023-05-20T01:47:02;21;17;
57289;PMS5003;43523;53.022;-1.178;2023-05-20T01:48:05;23;20;
57289;PMS5003;43523;53.022;-1.178;2023-05-20T01:49:07;26;20;
57289;PMS5003;43523;53.022;-1.178;2023-05-20T01:50:09;19;17;
57289;PMS5003;43523;53.022;-1.178;2023-05-20T01:51:11;19;17;
57289;PMS5003;43523;53.022;-1.178;2023-05-20T01:52:13;22;18;
57289;PMS5003;43523;53.022;-1.178;2023-05-20T01:53:16;19;15;
57289;PMS5003;43523;53.022;-1.178;2023-05-20T01:54:18;21;17;
57289;PMS5003;43523;53.022;-1.178;2023-05-20T01:55:20;22;22;
57289;PMS5003;43523;53.022;-1.178;2023-05-20T01:56:22;22;21;
57289;PMS5003;43523;53.022;-1.178;2023-05-20T01:57:25;16;14;
57289;PMS5003;43523;53.022;-1.178;2023-05-20T01:58:27;19;16;
57289;PMS5003;43523;53.022;-1.178;2023-05-20T01:59:30;17;16;
57289;PMS5003;43523;53.022;-1.178;2023-05-20T02:00:32;17;15;
57289;PMS5003;43523;53.022;-1.178;2023-05-20T02:01:35;12;11;
57289;PMS5003;43523;53.022;-1.178;2023-05-20T02:02:38;15;12;
57289;PMS5003;43523;53.022;-1.178;2023-05-20T02:03:40;21;19;
57289;PMS5003;43523;53.022;-1.178;2023-05-20T02:04:44;19;17;
57289;PMS5003;43523;53.022;-1.178;2023-05-20T02:05:49;18;15;
57289;PMS5003;43523;53.022;-1.178;2023-05-20T02:06:51;21;18;
57289;PMS5003;43523;53.022;-1.178;2023-05-20T02:07:53;30;19;
57289;PMS5003;43523;53.022;-1.178;2023-05-20T02:08:56;19;16;
57289;PMS5003;43523;53.022;-1.178;2023-05-20T02:09:58;18;17;
57289;PMS5003;43523;53.022;-1.178;2023-05-20T02:11:00;24;16;
57289;PMS5003;43523;53.022;-1.178;2023-05-20T02:12:03;21;16;
57289;PMS5003;43523;53.022;-1.178;2023-05-20T02:13:06;21;18;
57289;PMS5003;43523;53.022;-1.178;2023-05-20T02:14:09;18;14;
57289;PMS5003;43523;53.022;-1.178;2023-05-20T02:15:11;25;20;
57289;PMS5003;43523;53.022;-1.178;2023-05-20T02:16:13;15;15;
57289;PMS5003;43523;53.022;-1.178;2023-05-20T02:17:15;14;13;
57289;PMS5003;43523;53.022;-1.178;2023-05-20T02:18:18;20;17;
57289;PMS5003;43523;53.022;-1.178;2023-05-20T02:19:20;19;19;
57289;PMS5003;43523;53.022;-1.178;2023-05-20T02:20:23;19;16;
57289;PMS5003;43523;53.022;-1.178;2023-05-20T02:21:25;23;19;
57289;PMS5003;43523;53.022;-1.178;2023-05-20T02:22:27;20;17;
57289;PMS5003;43523;53.022;-1.178;2023-05-20T02:23:30;16;15;
57289;PMS5003;43523;53.022;-1.178;2023-05-20T02:24:32;21;16;
57289;PMS5003;43523;53.022;-1.178;2023-05-20T02:25:34;23;18;
57289;PMS5003;43523;53.022;-1.178;2023-05-20T02:26:36;17;15;
57289;PMS5003;43523;53.022;-1.178;2023-05-20T02:27:39;23;19;
57289;PMS5003;43523;53.022;-1.178;2023-05-20T02:28:41;16;16;
57289;PMS5003;43523;53.022;-1.178;2023-05-20T02:29:43;22;19;
57289;PMS5003;43523;53.022;-1.178;2023-05-20T02:30:46;21;18;
57289;PMS5003;43523;53.022;-1.178;2023-05-20T02:31:53;22;20;
57289;PMS5003;43523;53.022;-1.178;2023-05-20T02:32:55;22;20;
57289;PMS5003;43523;53.022;-1.178;2023-05-20T02:33:58;17;17;
57289;PMS5003;43523;53.022;-1.178;2023-05-20T02:35:00;31;21;
57289;PMS5003;43523;53.022;-1.178;2023-05-20T02:36:02;18;17;
57289;PMS5003;43523;53.022;-1.178;2023-05-20T02:37:05;23;21;
57289;PMS5003;43523;53.022;-1.178;2023-05-20T02:38:08;23;19;
57289;PMS5003;43523;53.022;-1.178;2023-05-20T02:39:11;23;20;
57289;PMS5003;43523;53.022;-1.178;2023-05-20T02:40:13;17;17;
57289;PMS5003;43523;53.022;-1.178;2023-05-20T02:41:15;18;18;
57289;PMS5003;43523;53.022;-1.178;2023-05-20T02:42:18;18;18;
57289;PMS5003;43523;53.022;-1.178;2023-05-20T02:43:20;22;18;
57289;PMS5003;43523;53.022;-1.178;2023-05-20T02:44:27;23;18;
57289;PMS5003;43523;53.022;-1.178;2023-05-20T02:45:29;24;19;
57289;PMS5003;43523;53.022;-1.178;2023-05-20T02:46:31;25;18;
57289;PMS5003;43523;53.022;-1.178;2023-05-20T02:47:33;23;19;
57289;PMS5003;43523;53.022;-1.178;2023-05-20T02:48:36;25;21;
57289;PMS5003;43523;53.022;-1.178;2023-05-20T02:49:38;22;22;
57289;PMS5003;43523;53.022;-1.178;2023-05-20T02:50:41;27;23;
57289;PMS5003;43523;53.022;-1.178;2023-05-20T02:51:44;27;19;
57289;PMS5003;43523;53.022;-1.178;2023-05-20T02:52:46;25;23;
57289;PMS5003;43523;53.022;-1.178;2023-05-20T02:53:48;23;21;
57289;PMS5003;43523;53.022;-1.178;2023-05-20T02:54:50;25;24;
57289;PMS5003;43523;53.022;-1.178;2023-05-20T02:55:53;28;22;
57289;PMS5003;43523;53.022;-1.178;2023-05-20T02:56:55;31;24;
57289;PMS5003;43523;53.022;-1.178;2023-05-20T02:57:58;22;20;
57289;PMS5003;43523;53.022;-1.178;2023-05-20T02:59:00;42;34;
57289;PMS5003;43523;53.022;-1.178;2023-05-20T03:00:03;43;38;
57289;PMS5003;43523;53.022;-1.178;2023-05-20T03:01:06;38;32;
57289;PMS5003;43523;53.022;-1.178;2023-05-20T03:02:08;39;31;
57289;PMS5003;43523;53.022;-1.178;2023-05-20T03:03:11;26;20;
57289;PMS5003;43523;53.022;-1.178;2023-05-20T03:04:13;34;31;
57289;PMS5003;43523;53.022;-1.178;2023-05-20T03:05:15;36;30;
57289;PMS5003;43523;53.022;-1.178;2023-05-20T03:06:18;27;19;
57289;PMS5003;43523;53.022;-1.178;2023-05-20T03:07:20;28;25;
57289;PMS5003;43523;53.022;-1.178;2023-05-20T03:08:22;28;24;
57289;PMS5003;43523;53.022;-1.178;2023-05-20T03:09:25;25;19;
57289;PMS5003;43523;53.022;-1.178;2023-05-20T03:10:27;31;25;
57289;PMS5003;43523;53.022;-1.178;2023-05-20T03:11:30;28;26;
57289;PMS5003;43523;53.022;-1.178;2023-05-20T03:12:33;25;23;
57289;PMS5003;43523;53.022;-1.178;2023-05-20T03:13:35;26;23;
57289;PMS5003;43523;53.022;-1.178;2023-05-20T03:14:38;30;24;
57289;PMS5003;43523;53.022;-1.178;2023-05-20T03:15:40;21;18;
57289;PMS5003;43523;53.022;-1.178;2023-05-20T03:16:43;23;22;
57289;PMS5003;43523;53.022;-1.178;2023-05-20T03:17:45;30;25;
57289;PMS5003;43523;53.022;-1.178;2023-05-20T03:18:48;56;36;
57289;PMS5003;43523;53.022;-1.178;2023-05-20T03:19:50;24;21;
57289;PMS5003;43523;53.022;-1.178;2023-05-20T03:20:52;31;26;
57289;PMS5003;43523;53.022;-1.178;2023-05-20T03:21:55;33;27;
57289;PMS5003;43523;53.022;-1.178;2023-05-20T03:22:57;33;24;
57289;PMS5003;43523;53.022;-1.178;2023-05-20T03:23:59;28;23;
57289;PMS5003;43523;53.022;-1.178;2023-05-20T03:25:02;24;23;
57289;PMS5003;43523;53.022;-1.178;2023-05-20T03:26:04;29;26;
57289;PMS5003;43523;53.022;-1.178;2023-05-20T03:27:07;29;26;
57289;PMS5003;43523;53.022;-1.178;2023-05-20T03:28:10;37;31;
57289;PMS5003;43523;53.022;-1.178;2023-05-20T03:29:11;25;20;
57289;PMS5003;43523;53.022;-1.178;2023-05-20T03:30:14;31;25;
57289;PMS5003;43523;53.022;-1.178;2023-05-20T03:31:17;27;21;
57289;PMS5003;43523;53.022;-1.178;2023-05-20T03:32:19;25;22;
57289;PMS5003;43523;53.022;-1.178;2023-05-20T03:33:22;24;21;
57289;PMS5003;43523;53.022;-1.178;2023-05-20T03:34:24;26;23;
57289;PMS5003;43523;53.022;-1.178;2023-05-20T03:35:27;27;22;
57289;PMS5003;43523;53.022;-1.178;2023-05-20T03:36:29;21;20;
57289;PMS5003;43523;53.022;-1.178;2023-05-20T03:37:32;29;25;
57289;PMS5003;43523;53.022;-1.178;2023-05-20T03:38:34;31;25;
57289;PMS5003;43523;53.022;-1.178;2023-05-20T03:39:35;24;23;
57289;PMS5003;43523;53.022;-1.178;2023-05-20T03:40:38;23;19;
57289;PMS5003;43523;53.022;-1.178;2023-05-20T03:41:40;26;23;
57289;PMS5003;43523;53.022;-1.178;2023-05-20T03:42:43;24;21;
57289;PMS5003;43523;53.022;-1.178;2023-05-20T03:43:45;22;19;
57289;PMS5003;43523;53.022;-1.178;2023-05-20T03:44:48;22;20;
57289;PMS5003;43523;53.022;-1.178;2023-05-20T03:45:50;22;21;
57289;PMS5003;43523;53.022;-1.178;2023-05-20T03:46:52;26;21;
57289;PMS5003;43523;53.022;-1.178;2023-05-20T03:47:55;25;20;
57289;PMS5003;43523;53.022;-1.178;2023-05-20T03:48:57;26;20;
57289;PMS5003;43523;53.022;-1.178;2023-05-20T03:50:00;23;20;
57289;PMS5003;43523;53.022;-1.178;2023-05-20T03:51:02;30;26;
57289;PMS5003;43523;53.022;-1.178;2023-05-20T03:52:04;27;22;
57289;PMS5003;43523;53.022;-1.178;2023-05-20T03:53:06;26;22;
57289;PMS5003;43523;53.022;-1.178;2023-05-20T03:54:09;25;23;
57289;PMS5003;43523;53.022;-1.178;2023-05-20T03:55:12;23;20;
57289;PMS5003;43523;53.022;-1.178;2023-05-20T03:56:14;23;21;
57289;PMS5003;43523;53.022;-1.178;2023-05-20T03:57:16;31;27;
57289;PMS5003;43523;53.022;-1.178;2023-05-20T03:58:19;26;23;
57289;PMS5003;43523;53.022;-1.178;2023-05-20T03:59:21;23;21;
57289;PMS5003;43523;53.022;-1.178;2023-05-20T04:00:23;24;21;
57289;PMS5003;43523;53.022;-1.178;2023-05-20T04:01:25;23;19;
57289;PMS5003;43523;53.022;-1.178;2023-05-20T04:02:28;25;20;
57289;PMS5003;43523;53.022;-1.178;2023-05-20T04:03:31;26;24;
57289;PMS5003;43523;53.022;-1.178;2023-05-20T04:04:39;20;18;
57289;PMS5003;43523;53.022;-1.178;2023-05-20T04:05:42;23;20;
57289;PMS5003;43523;53.022;-1.178;2023-05-20T04:06:44;26;21;
57289;PMS5003;43523;53.022;-1.178;2023-05-20T04:07:48;47;37;
57289;PMS5003;43523;53.022;-1.178;2023-05-20T04:08:50;27;23;
57289;PMS5003;43523;53.022;-1.178;2023-05-20T04:09:52;28;25;
57289;PMS5003;43523;53.022;-1.178;2023-05-20T04:10:55;27;23;
57289;PMS5003;43523;53.022;-1.178;2023-05-20T04:11:58;23;20;
57289;PMS5003;43523;53.022;-1.178;2023-05-20T04:13:00;27;22;
57289;PMS5003;43523;53.022;-1.178;2023-05-20T04:14:02;24;21;
57289;PMS5003;43523;53.022;-1.178;2023-05-20T04:15:05;31;25;
57289;PMS5003;43523;53.022;-1.178;2023-05-20T04:16:08;31;25;
57289;PMS5003;43523;53.022;-1.178;2023-05-20T04:17:11;26;24;
57289;PMS5003;43523;53.022;-1.178;2023-05-20T04:18:12;27;25;
57289;PMS5003;43523;53.022;-1.178;2023-05-20T04:19:15;34;29;
57289;PMS5003;43523;53.022;-1.178;2023-05-20T04:20:17;33;23;
57289;PMS5003;43523;53.022;-1.178;2023-05-20T04:21:20;30;25;
57289;PMS5003;43523;53.022;-1.178;2023-05-20T04:22:22;25;21;
57289;PMS5003;43523;53.022;-1.178;2023-05-20T04:23:24;27;25;
57289;PMS5003;43523;53.022;-1.178;2023-05-20T04:24:26;27;26;
57289;PMS5003;43523;53.022;-1.178;2023-05-20T04:25:28;26;23;
57289;PMS5003;43523;53.022;-1.178;2023-05-20T04:26:31;29;22;
57289;PMS5003;43523;53.022;-1.178;2023-05-20T04:27:33;24;20;
57289;PMS5003;43523;53.022;-1.178;2023-05-20T04:28:36;31;25;
57289;PMS5003;43523;53.022;-1.178;2023-05-20T04:29:38;30;23;
57289;PMS5003;43523;53.022;-1.178;2023-05-20T04:30:41;28;25;
57289;PMS5003;43523;53.022;-1.178;2023-05-20T04:31:43;28;22;
57289;PMS5003;43523;53.022;-1.178;2023-05-20T04:32:46;23;22;
57289;PMS5003;43523;53.022;-1.178;2023-05-20T04:33:48;29;24;
57289;PMS5003;43523;53.022;-1.178;2023-05-20T04:34:51;25;20;
57289;PMS5003;43523;53.022;-1.178;2023-05-20T04:35:54;22;22;
57289;PMS5003;43523;53.022;-1.178;2023-05-20T04:36:56;29;26;
57289;PMS5003;43523;53.022;-1.178;2023-05-20T04:37:59;26;24;
57289;PMS5003;43523;53.022;-1.178;2023-05-20T04:39:01;32;26;
57289;PMS5003;43523;53.022;-1.178;2023-05-20T04:40:04;34;26;
57289;PMS5003;43523;53.022;-1.178;2023-05-20T04:41:07;31;27;
57289;PMS5003;43523;53.022;-1.178;2023-05-20T04:42:09;30;25;
57289;PMS5003;43523;53.022;-1.178;2023-05-20T04:43:11;22;19;
57289;PMS5003;43523;53.022;-1.178;2023-05-20T04:44:13;27;21;
57289;PMS5003;43523;53.022;-1.178;2023-05-20T04:45:15;23;20;
57289;PMS5003;43523;53.022;-1.178;2023-05-20T04:46:18;21;21;
57289;PMS5003;43523;53.022;-1.178;2023-05-20T04:47:20;27;20;
57289;PMS5003;43523;53.022;-1.178;2023-05-20T04:48:22;27;21;
57289;PMS5003;43523;53.022;-1.178;2023-05-20T04:49:30;25;19;
57289;PMS5003;43523;53.022;-1.178;2023-05-20T04:50:32;27;22;
57289;PMS5003;43523;53.022;-1.178;2023-05-20T04:51:34;28;21;
57289;PMS5003;43523;53.022;-1.178;2023-05-20T04:52:37;27;23;
57289;PMS5003;43523;53.022;-1.178;2023-05-20T04:53:39;25;18;
57289;PMS5003;43523;53.022;-1.178;2023-05-20T04:54:42;27;19;
57289;PMS5003;43523;53.022;-1.178;2023-05-20T04:55:44;26;23;
57289;PMS5003;43523;53.022;-1.178;2023-05-20T04:56:48;29;25;
57289;PMS5003;43523;53.022;-1.178;2023-05-20T04:57:50;32;23;
57289;PMS5003;43523;53.022;-1.178;2023-05-20T04:58:52;26;22;
57289;PMS5003;43523;53.022;-1.178;2023-05-20T04:59:55;24;21;
57289;PMS5003;43523;53.022;-1.178;2023-05-20T05:00:57;25;20;
57289;PMS5003;43523;53.022;-1.178;2023-05-20T05:01:59;32;23;
57289;PMS5003;43523;53.022;-1.178;2023-05-20T05:03:02;33;26;
57289;PMS5003;43523;53.022;-1.178;2023-05-20T05:04:04;30;26;
57289;PMS5003;43523;53.022;-1.178;2023-05-20T05:05:11;33;23;
57289;PMS5003;43523;53.022;-1.178;2023-05-20T05:06:13;36;29;
57289;PMS5003;43523;53.022;-1.178;2023-05-20T05:07:15;38;27;
57289;PMS5003;43523;53.022;-1.178;2023-05-20T05:08:17;32;28;
57289;PMS5003;43523;53.022;-1.178;2023-05-20T05:09:19;29;24;
57289;PMS5003;43523;53.022;-1.178;2023-05-20T05:10:21;28;23;
57289;PMS5003;43523;53.022;-1.178;2023-05-20T05:11:23;28;21;
57289;PMS5003;43523;53.022;-1.178;2023-05-20T05:12:26;29;25;
57289;PMS5003;43523;53.022;-1.178;2023-05-20T05:13:27;37;30;
57289;PMS5003;43523;53.022;-1.178;2023-05-20T05:14:30;28;25;
57289;PMS5003;43523;53.022;-1.178;2023-05-20T05:15:32;31;23;
57289;PMS5003;43523;53.022;-1.178;2023-05-20T05:16:34;34;23;
57289;PMS5003;43523;53.022;-1.178;2023-05-20T05:17:36;26;23;
57289;PMS5003;43523;53.022;-1.178;2023-05-20T05:18:38;37;32;
57289;PMS5003;43523;53.022;-1.178;2023-05-20T05:19:40;33;27;
57289;PMS5003;43523;53.022;-1.178;2023-05-20T05:20:42;26;24;
57289;PMS5003;43523;53.022;-1.178;2023-05-20T05:21:44;35;30;
57289;PMS5003;43523;53.022;-1.178;2023-05-20T05:22:49;38;31;
57289;PMS5003;43523;53.022;-1.178;2023-05-20T05:23:51;28;24;
57289;PMS5003;43523;53.022;-1.178;2023-05-20T05:24:53;34;26;
57289;PMS5003;43523;53.022;-1.178;2023-05-20T05:25:55;37;33;
57289;PMS5003;43523;53.022;-1.178;2023-05-20T05:26:57;35;31;
57289;PMS5003;43523;53.022;-1.178;2023-05-20T05:28:00;41;33;
57289;PMS5003;43523;53.022;-1.178;2023-05-20T05:29:02;39;33;
57289;PMS5003;43523;53.022;-1.178;2023-05-20T05:30:04;30;26;
57289;PMS5003;43523;53.022;-1.178;2023-05-20T05:31:07;29;24;
57289;PMS5003;43523;53.022;-1.178;2023-05-20T05:32:09;35;31;
57289;PMS5003;43523;53.022;-1.178;2023-05-20T05:33:12;36;29;
57289;PMS5003;43523;53.022;-1.178;2023-05-20T05:34:15;39;30;
57289;PMS5003;43523;53.022;-1.178;2023-05-20T05:35:17;31;25;
57289;PMS5003;43523;53.022;-1.178;2023-05-20T05:36:20;26;24;
57289;PMS5003;43523;53.022;-1.178;2023-05-20T05:37:24;32;26;
57289;PMS5003;43523;53.022;-1.178;2023-05-20T05:38:26;27;23;
57289;PMS5003;43523;53.022;-1.178;2023-05-20T05:39:29;31;26;
57289;PMS5003;43523;53.022;-1.178;2023-05-20T05:40:31;25;24;
57289;PMS5003;43523;53.022;-1.178;2023-05-20T05:41:33;28;26;
57289;PMS5003;43523;53.022;-1.178;2023-05-20T05:42:35;35;28;
57289;PMS5003;43523;53.022;-1.178;2023-05-20T05:43:37;31;28;
57289;PMS5003;43523;53.022;-1.178;2023-05-20T05:44:40;35;27;
57289;PMS5003;43523;53.022;-1.178;2023-05-20T05:45:43;38;28;
57289;PMS5003;43523;53.022;-1.178;2023-05-20T05:46:46;39;30;
57289;PMS5003;43523;53.022;-1.178;2023-05-20T05:47:48;35;27;
57289;PMS5003;43523;53.022;-1.178;2023-05-20T05:48:51;43;27;
57289;PMS5003;43523;53.022;-1.178;2023-05-20T05:49:53;32;28;
57289;PMS5003;43523;53.022;-1.178;2023-05-20T05:50:55;35;30;
57289;PMS5003;43523;53.022;-1.178;2023-05-20T05:51:57;34;26;
57289;PMS5003;43523;53.022;-1.178;2023-05-20T05:53:00;33;27;
57289;PMS5003;43523;53.022;-1.178;2023-05-20T05:54:02;31;27;
57289;PMS5003;43523;53.022;-1.178;2023-05-20T05:55:05;35;32;
57289;PMS5003;43523;53.022;-1.178;2023-05-20T05:56:08;43;29;
57289;PMS5003;43523;53.022;-1.178;2023-05-20T05:57:11;35;27;
57289;PMS5003;43523;53.022;-1.178;2023-05-20T05:58:13;37;30;
57289;PMS5003;43523;53.022;-1.178;2023-05-20T05:59:15;37;29;
57289;PMS5003;43523;53.022;-1.178;2023-05-20T06:00:17;36;27;
57289;PMS5003;43523;53.022;-1.178;2023-05-20T06:01:20;39;32;
57289;PMS5003;43523;53.022;-1.178;2023-05-20T06:02:22;36;29;
57289;PMS5003;43523;53.022;-1.178;2023-05-20T06:03:24;40;36;
57289;PMS5003;43523;53.022;-1.178;2023-05-20T06:04:27;35;28;
57289;PMS5003;43523;53.022;-1.178;2023-05-20T06:05:29;30;25;
57289;PMS5003;43523;53.022;-1.178;2023-05-20T06:06:32;34;29;
57289;PMS5003;43523;53.022;-1.178;2023-05-20T06:07:34;44;33;
57289;PMS5003;43523;53.022;-1.178;2023-05-20T06:08:36;48;32;
57289;PMS5003;43523;53.022;-1.178;2023-05-20T06:09:39;38;32;
57289;PMS5003;43523;53.022;-1.178;2023-05-20T06:10:46;38;31;
57289;PMS5003;43523;53.022;-1.178;2023-05-20T06:11:48;43;34;
57289;PMS5003;43523;53.022;-1.178;2023-05-20T06:12:50;40;32;
57289;PMS5003;43523;53.022;-1.178;2023-05-20T06:13:53;33;30;
57289;PMS5003;43523;53.022;-1.178;2023-05-20T06:14:55;33;28;
57289;PMS5003;43523;53.022;-1.178;2023-05-20T06:15:57;29;29;
57289;PMS5003;43523;53.022;-1.178;2023-05-20T06:16:59;39;31;
57289;PMS5003;43523;53.022;-1.178;2023-05-20T06:18:02;43;33;
57289;PMS5003;43523;53.022;-1.178;2023-05-20T06:19:04;41;31;
57289;PMS5003;43523;53.022;-1.178;2023-05-20T06:20:07;39;32;
57289;PMS5003;43523;53.022;-1.178;2023-05-20T06:21:10;35;32;
57289;PMS5003;43523;53.022;-1.178;2023-05-20T06:22:13;36;30;
57289;PMS5003;43523;53.022;-1.178;2023-05-20T06:23:15;35;30;
57289;PMS5003;43523;53.022;-1.178;2023-05-20T06:24:18;36;32;
57289;PMS5003;43523;53.022;-1.178;2023-05-20T06:25:20;42;33;
57289;PMS5003;43523;53.022;-1.178;2023-05-20T06:26:22;45;33;
57289;PMS5003;43523;53.022;-1.178;2023-05-20T06:27:24;40;32;
57289;PMS5003;43523;53.022;-1.178;2023-05-20T06:28:28;52;33;
57289;PMS5003;43523;53.022;-1.178;2023-05-20T06:29:31;39;30;
57289;PMS5003;43523;53.022;-1.178;2023-05-20T06:30:34;47;35;
57289;PMS5003;43523;53.022;-1.178;2023-05-20T06:31:36;47;37;
57289;PMS5003;43523;53.022;-1.178;2023-05-20T06:32:39;45;33;
57289;PMS5003;43523;53.022;-1.178;2023-05-20T06:33:41;37;34;
57289;PMS5003;43523;53.022;-1.178;2023-05-20T06:34:43;39;33;
57289;PMS5003;43523;53.022;-1.178;2023-05-20T06:35:46;38;31;
57289;PMS5003;43523;53.022;-1.178;2023-05-20T06:36:48;33;32;
57289;PMS5003;43523;53.022;-1.178;2023-05-20T06:37:50;38;32;
57289;PMS5003;43523;53.022;-1.178;2023-05-20T06:38:52;36;28;
57289;PMS5003;43523;53.022;-1.178;2023-05-20T06:39:54;46;32;
57289;PMS5003;43523;53.022;-1.178;2023-05-20T06:40:56;35;32;
57289;PMS5003;43523;53.022;-1.178;2023-05-20T06:41:58;47;37;
57289;PMS5003;43523;53.022;-1.178;2023-05-20T06:43:00;37;29;
57289;PMS5003;43523;53.022;-1.178;2023-05-20T06:44:03;44;32;
57289;PMS5003;43523;53.022;-1.178;2023-05-20T06:45:06;37;30;
57289;PMS5003;43523;53.022;-1.178;2023-05-20T06:46:09;33;29;
57289;PMS5003;43523;53.022;-1.178;2023-05-20T06:47:13;34;30;
57289;PMS5003;43523;53.022;-1.178;2023-05-20T06:48:15;41;33;
57289;PMS5003;43523;53.022;-1.178;2023-05-20T06:49:17;32;27;